createdAt,value
2023-02-15T00:02:45.079Z,101636.75
2023-02-15T00:05:33.615Z,101633.06
2023-02-15T00:08:23.434Z,101637.63
2023-02-15T00:11:14.600Z,101629.59
2023-02-15T00:14:03.045Z,101630.31
2023-02-15T00:16:53.192Z,101624.91
2023-02-15T00:19:42.035Z,101615.97
2023-02-15T00:22:30.630Z,101616.69
2023-02-15T00:25:20.452Z,101600.09
2023-02-15T00:28:08.964Z,101616.38
2023-02-15T00:31:04.639Z,101595.78
2023-02-15T00:33:53.222Z,101616.38
2023-02-15T00:36:41.999Z,101610.13
2023-02-15T00:39:30.526Z,101618.81
2023-02-15T00:42:20.577Z,101620.50
2023-02-15T00:45:10.208Z,101615.22
2023-02-15T00:47:58.739Z,101597.13
2023-02-15T00:50:47.331Z,101606.75
2023-02-15T00:53:35.867Z,101613.00
2023-02-15T00:56:24.388Z,101613.72
2023-02-15T00:59:14.258Z,101613.50
2023-02-15T01:02:03.052Z,101616.78
2023-02-15T01:04:51.538Z,101614.97
2023-02-15T01:07:40.178Z,101616.47
2023-02-15T01:10:29.201Z,101601.03
2023-02-15T01:13:18.362Z,101607.91
2023-02-15T01:16:08.460Z,101615.94
2023-02-15T01:18:57.284Z,101548.34
2023-02-15T01:21:45.999Z,101601.16
2023-02-15T01:24:34.462Z,101619.00
2023-02-15T01:27:22.983Z,101624.09
2023-02-15T01:30:12.621Z,101614.22
2023-02-15T01:33:02.770Z,101607.25
2023-02-15T01:35:51.218Z,101611.59
2023-02-15T01:38:40.739Z,101611.06
2023-02-15T01:41:29.195Z,101605.03
2023-02-15T01:44:49.270Z,101617.19
2023-02-15T01:47:40.809Z,101606.00
2023-02-15T01:50:34.762Z,101599.75
2023-02-15T01:53:26.807Z,101599.66
2023-02-15T01:56:17.594Z,101598.19
2023-02-15T01:59:09.005Z,101597.97
2023-02-15T02:01:59.835Z,101584.88
2023-02-15T02:04:50.798Z,101586.16
2023-02-15T02:07:43.334Z,101563.22
2023-02-15T02:10:31.841Z,101567.13
2023-02-15T02:13:20.326Z,101569.16
2023-02-15T02:16:12.999Z,101533.47
2023-02-15T02:19:16.375Z,101575.47
2023-02-15T02:22:21.029Z,101565.69
2023-02-15T02:25:32.678Z,101577.16
2023-02-15T02:28:49.473Z,101560.19
2023-02-15T02:31:46.889Z,101571.06
2023-02-15T02:34:40.193Z,101567.78
2023-02-15T02:37:35.034Z,101513.81
2023-02-15T02:40:29.793Z,101561.97
2023-02-15T02:43:22.559Z,101551.28
2023-02-15T02:46:16.593Z,101550.88
2023-02-15T02:49:05.160Z,101501.78
2023-02-15T02:52:01.529Z,101550.34
2023-02-15T02:54:49.995Z,101534.50
2023-02-15T02:57:39.553Z,101545.78
2023-02-15T03:00:31.587Z,101530.38
2023-02-15T03:03:23.840Z,101503.66
2023-02-15T03:06:14.849Z,101540.00
2023-02-15T03:09:15.163Z,101536.09
2023-02-15T03:12:05.135Z,101546.16
2023-02-15T03:14:54.896Z,101536.31
2023-02-15T03:17:45.376Z,101541.69
2023-02-15T03:20:36.149Z,101482.28
2023-02-15T03:23:27.045Z,101510.22
2023-02-15T03:26:16.868Z,101539.38
2023-02-15T03:29:06.964Z,101534.84
2023-02-15T03:31:57.545Z,101527.03
2023-02-15T03:34:46.264Z,101508.88
2023-02-15T03:37:38.450Z,101532.94
2023-02-15T03:40:48.506Z,101519.63
2023-02-15T03:43:43.995Z,101538.75
2023-02-15T03:46:34.963Z,101551.50
2023-02-15T03:49:26.319Z,101552.78
2023-02-15T03:52:16.156Z,101547.50
2023-02-15T03:55:04.695Z,101548.25
2023-02-15T03:58:10.780Z,101544.97
2023-02-15T04:01:20.197Z,101528.81
2023-02-15T04:04:12.081Z,101525.00
2023-02-15T04:07:00.712Z,101542.13
2023-02-15T04:10:06.779Z,101541.91
2023-02-15T04:12:55.197Z,101549.41
2023-02-15T04:16:01.481Z,101549.31
2023-02-15T04:19:08.861Z,101541.50
2023-02-15T04:22:14.645Z,101539.28
2023-02-15T04:25:12.493Z,101543.06
2023-02-15T04:28:01.057Z,101545.28
2023-02-15T04:30:49.567Z,101539.16
2023-02-15T04:33:38.061Z,101546.66
2023-02-15T04:36:28.240Z,101533.44
2023-02-15T04:39:17.636Z,101535.25
2023-02-15T04:42:06.265Z,101530.72
2023-02-15T04:44:54.952Z,101530.09
2023-02-15T04:47:44.589Z,101530.94
2023-02-15T04:50:33.071Z,101532.50
2023-02-15T04:53:22.903Z,101532.41
2023-02-15T04:56:11.349Z,101533.78
2023-02-15T04:58:59.970Z,101513.06
2023-02-15T05:01:48.466Z,101528.50
2023-02-15T05:04:36.974Z,101508.00
2023-02-15T05:07:25.476Z,101526.38
2023-02-15T05:10:15.278Z,101527.78
2023-02-15T05:13:03.856Z,101535.59
2023-02-15T05:15:54.024Z,101517.31
2023-02-15T05:18:42.545Z,101508.97
2023-02-15T05:21:31.025Z,101525.97
2023-02-15T05:24:37.250Z,101526.91
2023-02-15T05:27:44.461Z,101519.59
2023-02-15T05:30:33.070Z,101523.44
2023-02-15T05:33:22.065Z,101506.00
2023-02-15T05:36:11.038Z,101524.06
2023-02-15T05:38:59.508Z,101523.56
2023-02-15T05:41:47.995Z,101523.56
2023-02-15T05:44:37.917Z,101523.56
2023-02-15T05:47:26.384Z,101526.19
2023-02-15T05:50:14.866Z,101524.19
2023-02-15T06:05:15.043Z,101543.06
2023-02-15T06:08:05.892Z,101545.19
2023-02-15T06:10:54.613Z,101543.81
2023-02-15T06:13:43.130Z,101539.69
2023-02-15T06:16:32.148Z,101540.53
2023-02-15T06:19:21.912Z,101551.75
2023-02-15T06:22:11.802Z,101547.00
2023-02-15T06:25:00.259Z,101559.34
2023-02-15T06:27:48.865Z,101565.69
2023-02-15T06:30:37.370Z,101564.06
2023-02-15T06:33:25.929Z,101573.34
2023-02-15T06:36:14.536Z,101566.72
2023-02-15T06:39:04.989Z,101573.78
2023-02-15T06:41:53.540Z,101578.53
2023-02-15T06:44:42.012Z,101570.50
2023-02-15T06:47:30.542Z,101567.13
2023-02-15T06:50:19.117Z,101575.44
2023-02-15T06:53:07.744Z,101585.91
2023-02-15T06:56:07.221Z,101574.53
2023-02-15T06:58:55.732Z,101573.91
2023-02-15T07:01:44.592Z,101577.16
2023-02-15T07:04:33.250Z,101583.59
2023-02-15T07:07:21.744Z,101593.09
2023-02-15T07:10:10.780Z,101583.59
2023-02-15T07:13:00.594Z,101575.59
2023-02-15T07:15:50.363Z,101582.44
2023-02-15T07:18:38.980Z,101569.59
2023-02-15T07:21:27.591Z,101569.34
2023-02-15T07:24:16.199Z,101577.06
2023-02-15T07:27:04.838Z,101577.72
2023-02-15T07:29:54.757Z,101579.59
2023-02-15T07:32:57.248Z,101576.84
2023-02-15T07:35:49.609Z,101577.16
2023-02-15T07:38:39.426Z,101579.50
2023-02-15T07:41:27.889Z,101581.19
2023-02-15T07:44:17.022Z,101593.44
2023-02-15T07:47:06.916Z,101591.34
2023-02-15T07:49:55.356Z,101589.22
2023-02-15T07:52:43.889Z,101577.94
2023-02-15T07:55:32.435Z,101574.75
2023-02-15T07:58:21.230Z,101573.72
2023-02-15T08:01:09.775Z,101575.19
2023-02-15T08:03:59.908Z,101565.16
2023-02-15T08:06:48.431Z,101580.22
2023-02-15T08:09:36.950Z,101575.31
2023-02-15T08:12:25.470Z,101576.75
2023-02-15T08:15:14.221Z,101570.00
2023-02-15T08:18:03.026Z,101563.00
2023-02-15T08:20:53.012Z,101564.31
2023-02-15T08:23:41.506Z,101559.97
2023-02-15T08:26:31.143Z,101554.28
2023-02-15T08:29:22.265Z,101559.75
2023-02-15T08:32:12.921Z,101553.84
2023-02-15T08:35:01.462Z,101558.69
2023-02-15T08:37:51.332Z,101557.44
2023-02-15T08:40:40.017Z,101557.75
2023-02-15T08:43:28.663Z,101548.97
2023-02-15T08:46:18.095Z,101549.94
2023-02-15T08:49:07.430Z,101546.66
2023-02-15T08:51:55.961Z,101547.28
2023-02-15T08:54:45.897Z,101546.69
2023-02-15T08:57:34.389Z,101552.25
2023-02-15T09:00:24.189Z,101542.13
2023-02-15T09:03:12.687Z,101543.38
2023-02-15T09:06:02.456Z,101517.72
2023-02-15T09:08:51.212Z,101543.47
2023-02-15T09:11:42.638Z,101542.31
2023-02-15T09:14:31.152Z,101543.34
2023-02-15T09:17:19.652Z,101532.50
2023-02-15T09:20:09.335Z,101532.50
2023-02-15T09:22:59.906Z,101532.72
2023-02-15T09:25:48.679Z,101538.41
2023-02-15T09:28:38.757Z,101532.38
2023-02-15T09:31:29.481Z,101528.25
2023-02-15T09:34:19.653Z,101532.28
2023-02-15T09:37:08.385Z,101520.78
2023-02-15T09:39:56.993Z,101522.78
2023-02-15T09:43:11.141Z,101519.91
2023-02-15T09:46:10.067Z,101525.28
2023-02-15T09:49:00.527Z,101538.63
2023-02-15T09:52:22.242Z,101533.22
2023-02-15T09:55:21.859Z,101525.06
2023-02-15T09:58:16.557Z,101527.06
2023-02-15T10:01:18.012Z,101528.69
2023-02-15T10:04:19.873Z,101533.50
2023-02-15T10:07:20.773Z,101539.31
2023-02-15T10:10:18.900Z,101536.94
2023-02-15T10:13:20.042Z,101532.88
2023-02-15T10:16:18.211Z,101535.81
2023-02-15T10:19:11.233Z,101532.44
2023-02-15T10:22:09.030Z,101534.69
2023-02-15T10:25:12.871Z,101540.09
2023-02-15T10:28:07.404Z,101542.84
2023-02-15T10:30:59.651Z,101535.19
2023-02-15T10:33:50.706Z,101532.66
2023-02-15T10:36:51.117Z,101526.94
2023-02-15T10:39:48.067Z,101526.16
2023-02-15T10:42:44.824Z,101523.38
2023-02-15T10:45:37.062Z,101525.69
2023-02-15T10:48:35.920Z,101472.53
2023-02-15T10:51:32.791Z,101531.97
2023-02-15T10:54:29.481Z,101516.47
2023-02-15T10:57:23.181Z,101515.03
2023-02-15T11:00:15.618Z,101516.88
2023-02-15T11:03:17.196Z,101524.34
2023-02-15T11:06:08.148Z,101527.44
2023-02-15T11:09:02.240Z,101520.84
2023-02-15T11:11:52.665Z,101467.25
2023-02-15T11:14:45.916Z,101510.84
2023-02-15T11:17:38.046Z,101505.34
2023-02-15T11:20:30.686Z,101504.25
2023-02-15T11:23:19.462Z,101497.81
2023-02-15T11:26:15.179Z,101486.75
2023-02-15T11:29:09.571Z,101498.09
2023-02-15T11:32:02.227Z,101484.28
2023-02-15T11:34:53.783Z,101484.16
2023-02-15T11:37:47.024Z,101480.19
2023-02-15T11:40:37.849Z,101484.75
2023-02-15T11:43:31.072Z,101462.59
2023-02-15T11:46:20.674Z,101472.13
2023-02-15T11:49:22.927Z,101468.28
2023-02-15T11:52:14.743Z,101461.06
2023-02-15T11:55:03.738Z,101457.31
2023-02-15T11:57:56.708Z,101445.28
2023-02-15T12:00:48.348Z,101443.50
2023-02-15T12:03:46.417Z,101443.63
2023-02-15T12:06:36.575Z,101444.69
2023-02-15T12:09:30.989Z,101431.22
2023-02-15T12:12:25.005Z,101424.50
2023-02-15T12:15:14.927Z,101430.25
2023-02-15T12:18:05.115Z,101435.53
2023-02-15T12:20:53.648Z,101426.16
2023-02-15T12:23:45.727Z,101427.88
2023-02-15T12:26:36.844Z,101412.34
2023-02-15T12:29:28.981Z,101359.66
2023-02-15T12:32:20.322Z,101418.25
2023-02-15T12:35:15.730Z,101420.28
2023-02-15T12:38:07.060Z,101418.84
2023-02-15T12:41:03.545Z,101426.16
2023-02-15T12:44:06.838Z,101417.84
2023-02-15T12:47:00.557Z,101411.31
2023-02-15T12:50:17.802Z,101401.19
2023-02-15T12:53:09.738Z,101392.88
2023-02-15T12:55:59.687Z,101393.00
2023-02-15T12:58:48.176Z,101392.84
2023-02-15T13:01:37.106Z,101396.59
2023-02-15T13:04:28.036Z,101394.72
2023-02-15T13:07:18.002Z,101399.41
2023-02-15T13:10:22.707Z,101355.22
2023-02-15T13:13:12.624Z,101318.75
2023-02-15T13:16:05.094Z,101379.81
2023-02-15T13:18:54.400Z,101378.84
2023-02-15T13:21:45.954Z,101365.81
2023-02-15T13:24:39.277Z,101358.31
2023-02-15T13:27:37.284Z,101355.56
2023-02-15T13:30:29.927Z,101332.66
2023-02-15T13:33:27.122Z,101359.00
2023-02-15T13:36:21.246Z,101344.50
2023-02-15T13:39:17.697Z,101341.22
2023-02-15T13:42:21.939Z,101341.78
2023-02-15T13:45:24.357Z,101339.09
2023-02-15T13:48:18.085Z,101333.44
2023-02-15T13:51:11.707Z,101339.19
2023-02-15T13:54:10.684Z,101334.84
2023-02-15T13:57:11.478Z,101334.28
2023-02-15T14:00:07.457Z,101320.13
2023-02-15T14:03:17.341Z,101327.34
2023-02-15T14:06:16.812Z,101331.56
2023-02-15T14:09:14.005Z,101318.06
2023-02-15T14:12:17.468Z,101318.78
2023-02-15T14:15:13.762Z,101317.81
2023-02-15T14:18:10.117Z,101305.31
2023-02-15T14:21:06.785Z,101319.91
2023-02-15T14:24:09.089Z,101326.34
2023-02-15T14:27:05.067Z,101322.44
2023-02-15T14:29:56.927Z,101324.69
2023-02-15T14:32:48.415Z,101322.88
2023-02-15T14:35:38.049Z,101313.78
2023-02-15T14:38:51.830Z,101322.88
2023-02-15T14:41:44.740Z,101319.91
2023-02-15T14:44:38.706Z,101318.25
2023-02-15T14:47:32.926Z,101318.53
2023-02-15T14:50:45.199Z,101314.22
2023-02-15T14:53:39.455Z,101324.44
2023-02-15T14:56:28.640Z,101319.25
2023-02-15T14:59:20.206Z,101323.59
2023-02-15T15:02:15.832Z,101319.25
2023-02-15T15:05:11.262Z,101320.78
2023-02-15T15:08:00.950Z,101315.88
2023-02-15T15:10:49.509Z,101306.81
2023-02-15T15:13:57.556Z,101316.59
2023-02-15T15:16:53.308Z,101303.19
2023-02-15T15:20:15.049Z,101310.59
2023-02-15T15:23:52.250Z,101304.88
2023-02-15T15:26:49.969Z,101311.44
2023-02-15T15:29:41.678Z,101301.09
2023-02-15T15:32:32.634Z,101309.06
2023-02-15T15:35:26.587Z,101303.19
2023-02-15T15:38:29.328Z,101219.22
2023-02-15T15:41:20.118Z,101300.09
2023-02-15T15:44:40.012Z,101306.28
2023-02-15T15:47:41.232Z,101294.78
2023-02-15T15:50:31.467Z,101297.44
2023-02-15T15:53:23.033Z,101220.06
2023-02-15T15:56:16.266Z,101296.47
2023-02-15T15:59:07.364Z,101292.28
2023-02-15T16:01:56.254Z,101288.06
2023-02-15T16:04:45.608Z,101294.78
2023-02-15T16:07:35.481Z,101302.34
2023-02-15T16:10:25.811Z,101295.47
2023-02-15T16:13:15.751Z,101292.81
2023-02-15T16:16:04.830Z,101305.69
2023-02-15T16:18:53.958Z,101292.25
2023-02-15T16:21:42.452Z,101292.41
2023-02-15T16:24:46.950Z,101292.53
2023-02-15T16:27:37.684Z,101292.09
2023-02-15T16:30:29.432Z,101293.38
2023-02-15T16:33:21.124Z,101290.56
2023-02-15T16:36:13.384Z,101288.03
2023-02-15T16:39:11.251Z,101289.13
2023-02-15T16:42:03.053Z,101296.69
2023-02-15T16:44:54.076Z,101287.97
2023-02-15T16:47:43.676Z,101296.47
2023-02-15T16:50:34.441Z,101303.03
2023-02-15T16:53:26.076Z,101309.28
2023-02-15T16:56:14.668Z,101309.63
2023-02-15T16:59:04.575Z,101309.59
2023-02-15T17:01:53.337Z,101315.44
2023-02-15T17:04:43.243Z,101314.72
2023-02-15T17:07:32.558Z,101292.41
2023-02-15T17:10:29.888Z,101295.53
2023-02-15T17:13:19.254Z,101310.59
2023-02-15T17:16:25.716Z,101304.72
2023-02-15T17:19:18.276Z,101301.75
2023-02-15T17:22:07.766Z,101304.22
2023-02-15T17:25:00.591Z,101308.34
2023-02-15T17:27:53.239Z,101228.97
2023-02-15T17:30:41.858Z,101311.28
2023-02-15T17:33:40.388Z,101307.78
2023-02-15T17:36:31.867Z,101303.41
2023-02-15T17:39:23.258Z,101310.88
2023-02-15T17:42:11.906Z,101313.56
2023-02-15T17:45:00.612Z,101316.97
2023-02-15T17:47:50.447Z,101309.66
2023-02-15T17:50:40.259Z,101309.16
2023-02-15T17:53:29.284Z,101307.00
2023-02-15T17:56:16.814Z,101288.03
2023-02-15T17:59:07.529Z,101303.91
2023-02-15T18:02:13.740Z,101302.84
2023-02-15T18:05:19.852Z,101314.03
2023-02-15T18:08:30.733Z,101305.88
2023-02-15T18:11:36.931Z,101307.19
2023-02-15T18:14:25.783Z,101310.06
2023-02-15T18:17:15.366Z,101316.09
2023-02-15T18:20:07.470Z,101300.56
2023-02-15T18:22:56.326Z,101324.63
2023-02-15T18:25:46.428Z,101314.41
2023-02-15T18:28:34.891Z,101309.09
2023-02-15T18:31:23.932Z,101312.47
2023-02-15T18:34:22.862Z,101307.53
2023-02-15T18:37:15.209Z,101303.69
2023-02-15T18:40:04.758Z,101296.00
2023-02-15T18:42:56.899Z,101300.06
2023-02-15T18:45:45.383Z,101295.03
2023-02-15T18:48:33.866Z,101303.41
2023-02-15T18:51:23.699Z,101292.09
2023-02-15T18:54:18.209Z,101291.25
2023-02-15T18:57:06.836Z,101293.03
2023-02-15T18:59:56.906Z,101298.56
2023-02-15T19:02:45.852Z,101297.97
2023-02-15T19:05:35.414Z,101298.66
2023-02-15T19:08:24.699Z,101296.66
2023-02-15T19:11:16.458Z,101295.91
2023-02-15T19:14:04.907Z,101293.88
2023-02-15T19:16:55.801Z,101300.31
2023-02-15T19:19:44.371Z,101294.91
2023-02-15T19:22:34.087Z,101304.72
2023-02-15T19:25:24.688Z,101269.06
2023-02-15T19:28:17.822Z,101297.47
2023-02-15T19:31:06.398Z,101286.88
2023-02-15T19:33:56.304Z,101288.69
2023-02-15T19:36:46.117Z,101285.91
2023-02-15T19:39:39.096Z,101289.75
2023-02-15T19:42:27.783Z,101284.59
2023-02-15T19:45:17.138Z,101279.19
2023-02-15T19:48:07.502Z,101150.44
2023-02-15T19:50:57.895Z,101278.34
2023-02-15T19:53:47.412Z,101280.50
2023-02-15T19:56:35.929Z,101281.16
2023-02-15T19:59:25.757Z,101287.53
2023-02-15T20:02:14.846Z,101283.50
2023-02-15T20:05:04.652Z,101280.97
2023-02-15T20:07:54.878Z,101284.81
2023-02-15T20:10:43.968Z,101271.59
2023-02-15T20:13:32.491Z,101281.44
2023-02-15T20:16:21.175Z,101278.78
2023-02-15T20:19:10.070Z,101289.25
2023-02-15T20:21:59.033Z,101273.84
2023-02-15T20:24:48.927Z,101275.09
2023-02-15T20:27:43.868Z,101299.78
2023-02-15T20:30:33.583Z,101248.72
2023-02-15T20:33:23.615Z,101296.66
2023-02-15T20:36:14.486Z,101315.56
2023-02-15T20:39:07.107Z,101305.25
2023-02-15T20:41:57.001Z,101311.59
2023-02-15T20:44:45.453Z,101304.13
2023-02-15T20:47:33.943Z,101315.69
2023-02-15T20:50:23.756Z,101324.00
2023-02-15T20:53:12.330Z,101324.13
2023-02-15T20:56:00.954Z,101317.03
2023-02-15T20:58:51.653Z,101178.50
2023-02-15T21:01:40.284Z,101319.22
2023-02-15T21:04:31.625Z,101318.16
2023-02-15T21:07:21.683Z,101297.91
2023-02-15T21:10:15.681Z,101312.31
2023-02-15T21:13:04.514Z,101318.34
2023-02-15T21:15:55.957Z,101323.19
2023-02-15T21:18:44.586Z,101300.88
2023-02-15T21:21:33.098Z,101311.03
2023-02-15T21:24:23.893Z,101325.59
2023-02-15T21:27:13.880Z,101320.56
2023-02-15T21:30:02.498Z,101321.09
2023-02-15T21:32:52.869Z,101289.34
2023-02-15T21:35:41.424Z,101328.22
2023-02-15T21:38:31.062Z,101320.41
2023-02-15T21:41:38.333Z,101330.56
2023-02-15T21:44:44.550Z,101319.16
2023-02-15T21:47:50.694Z,101326.16
2023-02-15T21:50:57.264Z,101325.06
2023-02-15T21:53:46.972Z,101309.31
2023-02-15T21:56:35.550Z,101318.63
2023-02-15T21:59:24.045Z,101323.59
2023-02-15T22:02:26.678Z,101310.84
2023-02-15T22:05:17.676Z,101321.66
2023-02-15T22:08:12.341Z,101317.53
2023-02-15T22:11:01.120Z,101313.75
2023-02-15T22:13:51.643Z,101310.47
2023-02-15T22:16:40.251Z,101314.81
2023-02-15T22:19:29.085Z,101294.63
2023-02-15T22:22:18.159Z,101249.72
2023-02-15T22:25:08.391Z,101309.44
2023-02-15T22:27:56.885Z,101315.25
2023-02-15T22:30:46.454Z,101308.44
2023-02-15T22:33:35.542Z,101325.03
2023-02-15T22:36:25.888Z,101333.06
2023-02-15T22:39:14.408Z,101326.59
2023-02-15T22:42:04.488Z,101330.47
2023-02-15T22:44:53.804Z,101331.22
2023-02-15T22:47:42.275Z,101318.47
2023-02-15T22:50:33.804Z,101315.81
2023-02-15T22:53:22.553Z,101320.03
2023-02-15T22:56:17.619Z,101329.75
2023-02-15T22:59:09.508Z,101325.41
2023-02-15T23:01:58.143Z,101317.81
2023-02-15T23:04:46.691Z,101325.63
2023-02-15T23:07:35.146Z,101327.34
2023-02-15T23:10:25.595Z,101269.28
2023-02-15T23:13:26.004Z,101316.03
2023-02-15T23:16:17.474Z,101325.16
2023-02-15T23:19:07.175Z,101316.47
2023-02-15T23:21:55.871Z,101314.06
2023-02-15T23:24:44.883Z,101311.31
2023-02-15T23:27:59.317Z,101301.50
2023-02-15T23:30:48.307Z,101314.47
2023-02-15T23:33:38.126Z,101314.59
2023-02-15T23:36:28.889Z,101324.09
2023-02-15T23:39:45.709Z,101325.47
2023-02-15T23:42:35.055Z,101330.22
2023-02-15T23:45:24.434Z,101327.91
2023-02-15T23:48:32.893Z,101323.28
2023-02-15T23:51:24.053Z,101311.03
2023-02-15T23:54:12.762Z,101281.63
2023-02-15T23:57:02.377Z,101306.69
2023-02-15T23:59:50.798Z,101293.22
